Time,TemperatureF,DewpointF,PressureIn,WindDirection,WindDirectionDegrees,WindSpeedMPH,WindSpeedGustMPH,Humidity,HourlyPrecipIn,Conditions,Clouds,dailyrainin,SolarRadiationWatts/m^2,SoftwareType,DateUTC
2013-09-28 00:21:00,45.0,43.0,-100.00,SE,125,5.0,11.0,93,0.01,,,0.49,0.000000,,2013-09-28 08:21:00,
2013-09-28 00:32:00,45.0,43.0,-100.00,SE,125,5.0,11.0,93,0.01,,,0.49,0.000000,,2013-09-28 08:32:00,
2013-09-28 00:42:00,45.0,43.0,-100.00,SE,125,5.0,11.0,93,0.01,,,0.49,0.000000,,2013-09-28 08:42:00,
2013-09-28 00:53:00,45.0,43.0,-100.00,SE,125,5.0,11.0,93,0.01,,,0.49,0.000000,,2013-09-28 08:53:00,
2013-09-28 01:22:00,44.0,42.0,-100.00,ESE,123,4.0,11.0,92,0.01,,,0.44,0.000000,,2013-09-28 09:22:00,
2013-09-28 01:33:00,44.0,42.0,-100.00,ESE,123,4.0,11.0,92,0.01,,,0.44,0.000000,,2013-09-28 09:33:00,
2013-09-28 01:43:00,44.0,42.0,-100.00,ESE,123,4.0,11.0,92,0.01,,,0.44,0.000000,,2013-09-28 09:43:00,
2013-09-28 01:53:00,44.0,42.0,-100.00,ESE,123,4.0,11.0,92,0.01,,,0.44,0.000000,,2013-09-28 09:53:00,
2013-09-28 02:22:00,45.0,41.0,-100.00,SE,131,4.0,11.0,87,0.00,,,0.42,0.000000,,2013-09-28 10:22:00,
2013-09-28 02:32:00,45.0,41.0,-100.00,SE,131,4.0,11.0,87,0.00,,,0.42,0.000000,,2013-09-28 10:32:00,
2013-09-28 02:42:00,45.0,41.0,-100.00,SE,131,4.0,11.0,87,0.00,,,0.42,0.000000,,2013-09-28 10:42:00,
2013-09-28 02:52:00,45.0,41.0,-100.00,SE,131,4.0,11.0,87,0.00,,,0.42,0.000000,,2013-09-28 10:52:00,
2013-09-28 03:22:00,46.0,41.0,-100.00,ESE,109,4.0,11.0,82,0.00,,,0.42,0.000000,,2013-09-28 11:22:00,
2013-09-28 03:33:00,46.0,41.0,-100.00,ESE,109,4.0,11.0,82,0.00,,,0.42,0.000000,,2013-09-28 11:33:00,
2013-09-28 03:42:00,46.0,41.0,-100.00,ESE,109,4.0,11.0,82,0.00,,,0.42,0.000000,,2013-09-28 11:42:00,
2013-09-28 03:52:00,46.0,41.0,-100.00,ESE,109,4.0,11.0,82,0.00,,,0.42,0.000000,,2013-09-28 11:52:00,
2013-09-28 04:22:00,46.0,41.0,-100.00,East,97,5.0,14.0,82,0.00,,,0.42,0.000000,,2013-09-28 12:22:00,
2013-09-28 04:32:00,46.0,41.0,-100.00,East,97,5.0,14.0,82,0.00,,,0.42,0.000000,,2013-09-28 12:32:00,
2013-09-28 04:42:00,46.0,41.0,-100.00,East,97,5.0,14.0,82,0.00,,,0.42,0.000000,,2013-09-28 12:42:00,
2013-09-28 04:52:00,46.0,41.0,-100.00,East,97,5.0,14.0,82,0.00,,,0.42,0.000000,,2013-09-28 12:52:00,
2013-09-28 05:22:00,45.0,41.0,-100.00,North,2,2.0,5.0,86,0.00,,,0.42,0.000000,,2013-09-28 13:22:00,
2013-09-28 05:32:00,45.0,41.0,-100.00,North,2,2.0,5.0,86,0.00,,,0.42,0.000000,,2013-09-28 13:32:00,
2013-09-28 05:42:00,45.0,41.0,-100.00,North,2,2.0,5.0,86,0.00,,,0.42,0.000000,,2013-09-28 13:42:00,
2013-09-28 05:52:00,45.0,41.0,-100.00,North,2,2.0,5.0,86,0.00,,,0.42,0.000000,,2013-09-28 13:52:00,
2013-09-28 06:21:00,47.0,42.0,-100.00,ENE,62,5.0,9.0,82,0.00,,,0.42,0.000000,,2013-09-28 14:21:00,
2013-09-28 06:32:00,47.0,42.0,-100.00,ENE,62,5.0,9.0,82,0.00,,,0.42,0.000000,,2013-09-28 14:32:00,
2013-09-28 06:42:00,47.0,42.0,-100.00,ENE,62,5.0,9.0,82,0.00,,,0.42,0.000000,,2013-09-28 14:42:00,
2013-09-28 06:52:00,47.0,42.0,-100.00,ENE,62,5.0,9.0,82,0.00,,,0.42,0.000000,,2013-09-28 14:52:00,
2013-09-28 07:22:00,47.0,40.0,-100.00,NE,43,6.0,11.0,77,0.00,,,0.42,0.000000,,2013-09-28 15:22:00,
2013-09-28 07:34:00,47.0,40.0,-100.00,NE,43,6.0,11.0,77,0.00,,,0.42,0.000000,,2013-09-28 15:34:00,
2013-09-28 07:44:00,47.0,40.0,-100.00,NE,43,6.0,11.0,77,0.00,,,0.42,0.000000,,2013-09-28 15:44:00,
2013-09-28 07:54:00,47.0,40.0,-100.00,NE,43,6.0,11.0,77,0.00,,,0.42,0.000000,,2013-09-28 15:54:00,
2013-09-28 08:24:00,45.0,42.0,-100.00,NW,326,2.0,7.0,88,0.00,,,0.42,5.000000,,2013-09-28 16:24:00,
2013-09-28 08:34:00,45.0,42.0,-100.00,NW,326,2.0,7.0,88,0.00,,,0.42,5.000000,,2013-09-28 16:34:00,
2013-09-28 08:43:00,45.0,42.0,-100.00,NW,326,2.0,7.0,88,0.00,,,0.42,5.000000,,2013-09-28 16:43:00,
2013-09-28 08:54:00,45.0,42.0,-100.00,NW,326,2.0,7.0,88,0.00,,,0.42,5.000000,,2013-09-28 16:54:00,
2013-09-28 09:23:00,45.0,43.0,-100.00,NNW,346,1.0,6.0,91,0.01,,,0.43,14.000000,,2013-09-28 17:23:00,
2013-09-28 09:34:00,45.0,43.0,-100.00,NNW,346,1.0,6.0,91,0.01,,,0.43,14.000000,,2013-09-28 17:34:00,
2013-09-28 09:43:00,45.0,43.0,-100.00,NNW,346,1.0,6.0,91,0.01,,,0.43,14.000000,,2013-09-28 17:43:00,
2013-09-28 09:52:00,45.0,43.0,-100.00,NNW,346,1.0,6.0,91,0.01,,,0.43,14.000000,,2013-09-28 17:52:00,
2013-09-28 10:22:00,45.0,44.0,-100.00,SSE,147,0.0,0.0,95,0.03,,,0.46,32.000000,,2013-09-28 18:22:00,
2013-09-28 10:32:00,45.0,44.0,-100.00,SSE,147,0.0,0.0,95,0.03,,,0.46,32.000000,,2013-09-28 18:32:00,
2013-09-28 10:42:00,45.0,44.0,-100.00,SSE,147,0.0,0.0,95,0.03,,,0.46,32.000000,,2013-09-28 18:42:00,
2013-09-28 10:52:00,45.0,44.0,-100.00,SSE,147,0.0,0.0,95,0.03,,,0.46,32.000000,,2013-09-28 18:52:00,
2013-09-28 11:21:00,46.0,45.0,-100.00,NW,309,0.0,0.0,95,0.04,,,0.47,41.000000,,2013-09-28 19:21:00,
2013-09-28 11:32:00,46.0,45.0,-100.00,NW,309,0.0,0.0,95,0.04,,,0.47,41.000000,,2013-09-28 19:32:00,
2013-09-28 11:42:00,46.0,45.0,-100.00,NW,309,0.0,0.0,95,0.04,,,0.47,41.000000,,2013-09-28 19:42:00,
2013-09-28 11:52:00,46.0,45.0,-100.00,NW,309,0.0,0.0,95,0.04,,,0.47,41.000000,,2013-09-28 19:52:00,
2013-09-28 12:22:00,46.0,45.0,-100.00,NNW,348,0.0,6.0,95,0.04,,,0.48,71.000000,,2013-09-28 20:22:00,
2013-09-28 12:33:00,46.0,45.0,-100.00,NNW,348,0.0,6.0,95,0.04,,,0.48,71.000000,,2013-09-28 20:33:00,
2013-09-28 12:43:00,46.0,45.0,-100.00,NNW,348,0.0,6.0,95,0.04,,,0.48,71.000000,,2013-09-28 20:43:00,
2013-09-28 12:52:00,46.0,45.0,-100.00,NNW,348,0.0,6.0,95,0.04,,,0.48,71.000000,,2013-09-28 20:52:00,
2013-09-28 12:55:00,48.0,46.0,-100.00,NNW,346,4.0,7.0,94,0.00,,,0.48,166.000000,,2013-09-28 20:55:00,
2013-09-28 13:22:00,48.0,46.0,-100.00,NNW,346,4.0,7.0,94,0.00,,,0.48,166.000000,,2013-09-28 21:22:00,
2013-09-28 13:34:00,48.0,46.0,-100.00,NNW,346,4.0,7.0,94,0.00,,,0.48,166.000000,,2013-09-28 21:34:00,
2013-09-28 13:44:00,48.0,46.0,-100.00,NNW,346,4.0,7.0,94,0.00,,,0.48,166.000000,,2013-09-28 21:44:00,
2013-09-28 14:23:00,51.0,47.0,-100.00,SE,124,4.0,9.0,85,0.00,,,0.48,256.000000,,2013-09-28 22:23:00,
2013-09-28 14:33:00,51.0,47.0,-100.00,SE,124,4.0,9.0,85,0.00,,,0.48,256.000000,,2013-09-28 22:33:00,
2013-09-28 14:43:00,51.0,47.0,-100.00,SE,124,4.0,9.0,85,0.00,,,0.48,256.000000,,2013-09-28 22:43:00,
2013-09-28 14:53:00,51.0,47.0,-100.00,SE,124,4.0,9.0,85,0.00,,,0.48,256.000000,,2013-09-28 22:53:00,
2013-09-28 16:22:00,51.0,44.0,-100.00,ENE,68,5.0,12.0,77,-99.99,,,0.42,215.000000,,2013-09-29 00:22:00,
2013-09-28 16:32:00,51.0,44.0,-100.00,ENE,68,5.0,12.0,77,-99.99,,,0.42,215.000000,,2013-09-29 00:32:00,
2013-09-28 16:43:00,51.0,44.0,-100.00,ENE,68,5.0,12.0,77,-99.99,,,0.42,215.000000,,2013-09-29 00:43:00,
2013-09-28 16:52:00,51.0,44.0,-100.00,ENE,68,5.0,12.0,77,-99.99,,,0.42,215.000000,,2013-09-29 00:52:00,
2013-09-28 17:21:00,50.0,44.0,-100.00,ENE,74,2.0,7.0,79,0.00,,,0.38,106.000000,,2013-09-29 01:21:00,
2013-09-28 17:32:00,50.0,44.0,-100.00,ENE,74,2.0,7.0,79,0.00,,,0.38,106.000000,,2013-09-29 01:32:00,
2013-09-28 17:43:00,50.0,44.0,-100.00,ENE,74,2.0,7.0,79,0.00,,,0.38,106.000000,,2013-09-29 01:43:00,
2013-09-28 17:52:00,50.0,44.0,-100.00,ENE,74,2.0,7.0,79,0.00,,,0.38,106.000000,,2013-09-29 01:52:00,
2013-09-28 18:22:00,47.0,45.0,-100.00,NNW,341,3.0,7.0,91,0.00,,,0.30,58.000000,,2013-09-29 02:22:00,
2013-09-28 18:32:00,47.0,45.0,-100.00,NNW,341,3.0,7.0,91,0.00,,,0.30,58.000000,,2013-09-29 02:32:00,
2013-09-28 18:43:00,47.0,45.0,-100.00,NNW,341,3.0,7.0,91,0.00,,,0.30,58.000000,,2013-09-29 02:43:00,
2013-09-28 18:53:00,47.0,45.0,-100.00,NNW,341,3.0,7.0,91,0.00,,,0.30,58.000000,,2013-09-29 02:53:00,
2013-09-28 18:55:00,45.0,43.0,-100.00,NNW,340,4.0,6.0,94,0.00,,,0.27,10.000000,,2013-09-29 02:55:00,
2013-09-28 19:23:00,45.0,43.0,-100.00,NNW,340,4.0,6.0,94,0.00,,,0.27,10.000000,,2013-09-29 03:23:00,
2013-09-28 19:34:00,45.0,43.0,-100.00,NNW,340,4.0,6.0,94,0.00,,,0.27,10.000000,,2013-09-29 03:34:00,
2013-09-28 19:44:00,45.0,43.0,-100.00,NNW,340,4.0,6.0,94,0.00,,,0.27,10.000000,,2013-09-29 03:44:00,
2013-09-28 20:24:00,45.0,43.0,-100.00,NNW,330,3.0,6.0,94,0.00,,,0.24,0.000000,,2013-09-29 04:24:00,
2013-09-28 20:34:00,45.0,43.0,-100.00,NNW,330,3.0,6.0,94,0.00,,,0.24,0.000000,,2013-09-29 04:34:00,
2013-09-28 20:44:00,45.0,43.0,-100.00,NNW,330,3.0,6.0,94,0.00,,,0.24,0.000000,,2013-09-29 04:44:00,
2013-09-28 20:54:00,45.0,43.0,-100.00,NNW,330,3.0,6.0,94,0.00,,,0.24,0.000000,,2013-09-29 04:54:00,
2013-09-28 21:22:00,44.0,43.0,-100.00,NNW,329,3.0,5.0,96,0.00,,,0.21,0.000000,,2013-09-29 05:22:00,
2013-09-28 21:34:00,44.0,43.0,-100.00,NNW,329,3.0,5.0,96,0.00,,,0.21,0.000000,,2013-09-29 05:34:00,
2013-09-28 21:43:00,44.0,43.0,-100.00,NNW,329,3.0,5.0,96,0.00,,,0.21,0.000000,,2013-09-29 05:43:00,
2013-09-28 21:52:00,44.0,43.0,-100.00,NNW,329,3.0,5.0,96,0.00,,,0.21,0.000000,,2013-09-29 05:52:00,
2013-09-28 22:22:00,42.0,41.0,-100.00,NW,308,3.0,4.0,97,0.00,,,0.16,0.000000,,2013-09-29 06:22:00,
2013-09-28 22:32:00,42.0,41.0,-100.00,NW,308,3.0,4.0,97,0.00,,,0.16,0.000000,,2013-09-29 06:32:00,
2013-09-28 22:42:00,42.0,41.0,-100.00,NW,308,3.0,4.0,97,0.00,,,0.16,0.000000,,2013-09-29 06:42:00,
2013-09-28 22:52:00,42.0,41.0,-100.00,NW,308,3.0,4.0,97,0.00,,,0.16,0.000000,,2013-09-29 06:52:00,
2013-09-28 23:22:00,42.0,41.0,-100.00,NW,307,1.0,5.0,98,0.00,,,0.14,0.000000,,2013-09-29 07:22:00,
2013-09-28 23:32:00,42.0,41.0,-100.00,NW,307,1.0,5.0,98,0.00,,,0.14,0.000000,,2013-09-29 07:32:00,
2013-09-28 23:43:00,42.0,41.0,-100.00,NW,307,1.0,5.0,98,0.00,,,0.14,0.000000,,2013-09-29 07:43:00,
2013-09-28 23:52:00,42.0,41.0,-100.00,NW,307,1.0,5.0,98,0.00,,,0.14,0.000000,,2013-09-29 07:52:00,